sensor_id;sensor_type;location;lat;lon;timestamp;P1;durP1;ratioP1;P2;durP2;ratioP2
68923;SDS011;55961;52.156;20.942;2023-02-22T00:01:29;10.80;;;2.20;;
68923;SDS011;55961;52.156;20.942;2023-02-22T00:04:00;20.70;;;2.80;;
68923;SDS011;55961;52.156;20.942;2023-02-22T00:06:30;10.68;;;2.60;;
68923;SDS011;55961;52.156;20.942;2023-02-22T00:08:57;11.05;;;2.28;;
68923;SDS011;55961;52.156;20.942;2023-02-22T00:11:24;10.65;;;1.75;;
68923;SDS011;55961;52.156;20.942;2023-02-22T00:13:51;10.48;;;1.85;;
68923;SDS011;55961;52.156;20.942;2023-02-22T00:16:18;10.70;;;2.20;;
68923;SDS011;55961;52.156;20.942;2023-02-22T00:18:46;7.70;;;1.90;;
68923;SDS011;55961;52.156;20.942;2023-02-22T00:21:13;11.10;;;2.50;;
68923;SDS011;55961;52.156;20.942;2023-02-22T00:23:41;8.05;;;2.03;;
68923;SDS011;55961;52.156;20.942;2023-02-22T00:26:16;10.70;;;2.33;;
68923;SDS011;55961;52.156;20.942;2023-02-22T00:28:44;9.70;;;2.07;;
68923;SDS011;55961;52.156;20.942;2023-02-22T00:31:15;10.32;;;2.42;;
68923;SDS011;55961;52.156;20.942;2023-02-22T00:33:42;13.98;;;3.00;;
68923;SDS011;55961;52.156;20.942;2023-02-22T00:36:09;11.10;;;2.30;;
68923;SDS011;55961;52.156;20.942;2023-02-22T00:38:36;12.48;;;2.55;;
68923;SDS011;55961;52.156;20.942;2023-02-22T00:41:03;12.20;;;2.30;;
68923;SDS011;55961;52.156;20.942;2023-02-22T00:43:29;12.00;;;2.50;;
68923;SDS011;55961;52.156;20.942;2023-02-22T00:45:55;12.60;;;2.13;;
68923;SDS011;55961;52.156;20.942;2023-02-22T00:48:22;12.80;;;2.40;;
68923;SDS011;55961;52.156;20.942;2023-02-22T00:50:48;8.77;;;2.22;;
68923;SDS011;55961;52.156;20.942;2023-02-22T00:53:15;11.52;;;3.05;;
68923;SDS011;55961;52.156;20.942;2023-02-22T00:55:41;12.95;;;2.83;;
68923;SDS011;55961;52.156;20.942;2023-02-22T00:58:07;13.43;;;3.87;;
68923;SDS011;55961;52.156;20.942;2023-02-22T01:00:34;14.55;;;3.60;;
68923;SDS011;55961;52.156;20.942;2023-02-22T01:03:08;13.07;;;4.13;;
68923;SDS011;55961;52.156;20.942;2023-02-22T01:05:36;15.00;;;3.55;;
68923;SDS011;55961;52.156;20.942;2023-02-22T01:08:03;14.82;;;4.05;;
68923;SDS011;55961;52.156;20.942;2023-02-22T01:10:33;14.50;;;3.53;;
68923;SDS011;55961;52.156;20.942;2023-02-22T01:13:00;16.42;;;4.13;;
68923;SDS011;55961;52.156;20.942;2023-02-22T01:15:32;15.50;;;3.97;;
68923;SDS011;55961;52.156;20.942;2023-02-22T01:18:01;19.48;;;3.67;;
68923;SDS011;55961;52.156;20.942;2023-02-22T01:20:26;16.55;;;3.72;;
68923;SDS011;55961;52.156;20.942;2023-02-22T01:22:54;16.47;;;3.73;;
68923;SDS011;55961;52.156;20.942;2023-02-22T01:25:22;14.07;;;4.47;;
68923;SDS011;55961;52.156;20.942;2023-02-22T01:27:50;15.73;;;4.72;;
68923;SDS011;55961;52.156;20.942;2023-02-22T01:30:20;14.68;;;4.13;;
68923;SDS011;55961;52.156;20.942;2023-02-22T01:32:48;18.35;;;4.55;;
68923;SDS011;55961;52.156;20.942;2023-02-22T01:35:16;18.33;;;4.73;;
68923;SDS011;55961;52.156;20.942;2023-02-22T01:37:44;19.40;;;5.03;;
68923;SDS011;55961;52.156;20.942;2023-02-22T01:40:13;19.80;;;6.60;;
68923;SDS011;55961;52.156;20.942;2023-02-22T01:42:52;19.17;;;5.38;;
68923;SDS011;55961;52.156;20.942;2023-02-22T01:48:14;19.67;;;4.67;;
68923;SDS011;55961;52.156;20.942;2023-02-22T01:50:42;16.35;;;4.03;;
68923;SDS011;55961;52.156;20.942;2023-02-22T01:53:12;22.67;;;5.22;;
68923;SDS011;55961;52.156;20.942;2023-02-22T01:55:40;16.23;;;4.50;;
68923;SDS011;55961;52.156;20.942;2023-02-22T01:58:07;18.95;;;4.75;;
68923;SDS011;55961;52.156;20.942;2023-02-22T02:00:34;14.67;;;4.90;;
68923;SDS011;55961;52.156;20.942;2023-02-22T02:03:02;17.52;;;5.18;;
68923;SDS011;55961;52.156;20.942;2023-02-22T02:05:33;18.67;;;4.55;;
68923;SDS011;55961;52.156;20.942;2023-02-22T02:08:04;11.80;;;3.90;;
68923;SDS011;55961;52.156;20.942;2023-02-22T02:10:38;15.27;;;4.78;;
68923;SDS011;55961;52.156;20.942;2023-02-22T02:13:06;19.73;;;4.33;;
68923;SDS011;55961;52.156;20.942;2023-02-22T02:15:34;14.70;;;3.33;;
68923;SDS011;55961;52.156;20.942;2023-02-22T02:18:04;13.70;;;3.53;;
68923;SDS011;55961;52.156;20.942;2023-02-22T02:28:41;14.20;;;3.00;;
68923;SDS011;55961;52.156;20.942;2023-02-22T02:33:54;13.07;;;2.08;;
68923;SDS011;55961;52.156;20.942;2023-02-22T02:36:30;12.77;;;2.70;;
68923;SDS011;55961;52.156;20.942;2023-02-22T02:39:04;10.03;;;2.00;;
68923;SDS011;55961;52.156;20.942;2023-02-22T02:41:48;12.63;;;2.90;;
68923;SDS011;55961;52.156;20.942;2023-02-22T02:44:19;13.15;;;2.85;;
68923;SDS011;55961;52.156;20.942;2023-02-22T02:46:59;11.65;;;2.80;;
68923;SDS011;55961;52.156;20.942;2023-02-22T02:52:32;7.83;;;2.33;;
68923;SDS011;55961;52.156;20.942;2023-02-22T02:55:00;10.10;;;2.47;;
68923;SDS011;55961;52.156;20.942;2023-02-22T02:57:28;12.40;;;2.60;;
68923;SDS011;55961;52.156;20.942;2023-02-22T02:59:55;9.68;;;2.75;;
68923;SDS011;55961;52.156;20.942;2023-02-22T03:16:06;8.93;;;2.40;;
68923;SDS011;55961;52.156;20.942;2023-02-22T03:27:22;15.23;;;2.80;;
68923;SDS011;55961;52.156;20.942;2023-02-22T03:29:52;11.27;;;2.67;;
68923;SDS011;55961;52.156;20.942;2023-02-22T03:32:27;13.00;;;2.80;;
68923;SDS011;55961;52.156;20.942;2023-02-22T03:35:02;9.98;;;2.45;;
68923;SDS011;55961;52.156;20.942;2023-02-22T03:37:33;11.60;;;2.42;;
68923;SDS011;55961;52.156;20.942;2023-02-22T03:40:02;15.82;;;2.60;;
68923;SDS011;55961;52.156;20.942;2023-02-22T03:42:47;14.10;;;2.97;;
68923;SDS011;55961;52.156;20.942;2023-02-22T03:45:18;17.75;;;3.20;;
68923;SDS011;55961;52.156;20.942;2023-02-22T03:47:50;9.63;;;2.65;;
68923;SDS011;55961;52.156;20.942;2023-02-22T03:50:27;11.02;;;2.35;;
68923;SDS011;55961;52.156;20.942;2023-02-22T03:52:56;14.30;;;2.72;;
68923;SDS011;55961;52.156;20.942;2023-02-22T03:55:23;10.60;;;2.03;;
68923;SDS011;55961;52.156;20.942;2023-02-22T03:57:50;12.82;;;2.42;;
68923;SDS011;55961;52.156;20.942;2023-02-22T04:00:22;12.85;;;2.65;;
68923;SDS011;55961;52.156;20.942;2023-02-22T04:02:51;10.63;;;2.40;;
68923;SDS011;55961;52.156;20.942;2023-02-22T04:05:18;11.45;;;2.47;;
68923;SDS011;55961;52.156;20.942;2023-02-22T04:07:45;9.93;;;2.63;;
68923;SDS011;55961;52.156;20.942;2023-02-22T04:10:12;10.65;;;2.88;;
68923;SDS011;55961;52.156;20.942;2023-02-22T04:12:39;11.60;;;3.05;;
68923;SDS011;55961;52.156;20.942;2023-02-22T04:15:05;7.63;;;2.30;;
68923;SDS011;55961;52.156;20.942;2023-02-22T04:17:33;14.27;;;2.70;;
68923;SDS011;55961;52.156;20.942;2023-02-22T04:19:59;9.55;;;2.40;;
68923;SDS011;55961;52.156;20.942;2023-02-22T04:22:25;7.55;;;2.55;;
68923;SDS011;55961;52.156;20.942;2023-02-22T04:24:51;9.40;;;2.47;;
68923;SDS011;55961;52.156;20.942;2023-02-22T04:27:18;11.47;;;2.23;;
68923;SDS011;55961;52.156;20.942;2023-02-22T04:29:43;9.38;;;2.65;;
68923;SDS011;55961;52.156;20.942;2023-02-22T04:32:10;11.45;;;3.15;;
68923;SDS011;55961;52.156;20.942;2023-02-22T04:34:35;7.97;;;2.63;;
68923;SDS011;55961;52.156;20.942;2023-02-22T04:37:01;9.35;;;3.15;;
68923;SDS011;55961;52.156;20.942;2023-02-22T04:39:27;9.18;;;2.70;;
68923;SDS011;55961;52.156;20.942;2023-02-22T04:41:54;9.45;;;2.50;;
68923;SDS011;55961;52.156;20.942;2023-02-22T04:44:20;8.83;;;2.33;;
68923;SDS011;55961;52.156;20.942;2023-02-22T04:46:46;10.48;;;2.20;;
68923;SDS011;55961;52.156;20.942;2023-02-22T04:49:12;11.45;;;2.60;;
68923;SDS011;55961;52.156;20.942;2023-02-22T04:51:38;9.98;;;2.50;;
68923;SDS011;55961;52.156;20.942;2023-02-22T04:54:03;10.60;;;2.93;;
68923;SDS011;55961;52.156;20.942;2023-02-22T04:56:29;8.23;;;2.17;;
68923;SDS011;55961;52.156;20.942;2023-02-22T04:58:55;4.07;;;0.90;;
68923;SDS011;55961;52.156;20.942;2023-02-22T05:01:21;7.00;;;1.10;;
68923;SDS011;55961;52.156;20.942;2023-02-22T05:03:47;3.22;;;0.65;;
68923;SDS011;55961;52.156;20.942;2023-02-22T05:06:14;3.80;;;0.73;;
68923;SDS011;55961;52.156;20.942;2023-02-22T05:08:41;4.72;;;0.85;;
68923;SDS011;55961;52.156;20.942;2023-02-22T05:11:07;5.88;;;1.00;;
68923;SDS011;55961;52.156;20.942;2023-02-22T05:13:34;4.50;;;0.63;;
68923;SDS011;55961;52.156;20.942;2023-02-22T05:16:00;5.20;;;1.23;;
68923;SDS011;55961;52.156;20.942;2023-02-22T05:18:26;4.57;;;1.00;;
68923;SDS011;55961;52.156;20.942;2023-02-22T05:20:52;3.97;;;1.00;;
68923;SDS011;55961;52.156;20.942;2023-02-22T05:23:18;4.90;;;1.00;;
68923;SDS011;55961;52.156;20.942;2023-02-22T05:25:44;5.30;;;1.02;;
68923;SDS011;55961;52.156;20.942;2023-02-22T05:28:11;3.65;;;0.85;;
68923;SDS011;55961;52.156;20.942;2023-02-22T05:30:38;2.88;;;0.70;;
68923;SDS011;55961;52.156;20.942;2023-02-22T05:33:06;5.43;;;0.63;;
68923;SDS011;55961;52.156;20.942;2023-02-22T05:35:33;4.47;;;0.98;;
68923;SDS011;55961;52.156;20.942;2023-02-22T05:37:59;4.00;;;0.80;;
68923;SDS011;55961;52.156;20.942;2023-02-22T05:40:27;6.22;;;1.35;;
68923;SDS011;55961;52.156;20.942;2023-02-22T05:42:54;2.83;;;0.60;;
68923;SDS011;55961;52.156;20.942;2023-02-22T05:45:22;3.97;;;0.97;;
68923;SDS011;55961;52.156;20.942;2023-02-22T05:47:50;5.22;;;1.63;;
68923;SDS011;55961;52.156;20.942;2023-02-22T05:50:18;4.25;;;1.30;;
68923;SDS011;55961;52.156;20.942;2023-02-22T05:52:44;4.80;;;1.60;;
68923;SDS011;55961;52.156;20.942;2023-02-22T05:55:13;6.97;;;1.52;;
68923;SDS011;55961;52.156;20.942;2023-02-22T05:57:41;4.77;;;1.50;;
68923;SDS011;55961;52.156;20.942;2023-02-22T06:00:08;6.28;;;1.60;;
68923;SDS011;55961;52.156;20.942;2023-02-22T06:02:35;4.50;;;1.33;;
68923;SDS011;55961;52.156;20.942;2023-02-22T06:05:03;3.83;;;0.93;;
68923;SDS011;55961;52.156;20.942;2023-02-22T06:07:29;4.38;;;1.23;;
68923;SDS011;55961;52.156;20.942;2023-02-22T06:09:55;4.97;;;1.23;;
68923;SDS011;55961;52.156;20.942;2023-02-22T06:12:21;4.88;;;1.90;;
68923;SDS011;55961;52.156;20.942;2023-02-22T06:14:47;14.07;;;5.53;;
68923;SDS011;55961;52.156;20.942;2023-02-22T06:17:13;13.30;;;4.60;;
68923;SDS011;55961;52.156;20.942;2023-02-22T06:19:40;16.45;;;6.68;;
68923;SDS011;55961;52.156;20.942;2023-02-22T06:22:06;12.27;;;4.63;;
68923;SDS011;55961;52.156;20.942;2023-02-22T06:24:32;8.63;;;3.40;;
68923;SDS011;55961;52.156;20.942;2023-02-22T06:26:59;8.07;;;2.45;;
68923;SDS011;55961;52.156;20.942;2023-02-22T06:29:26;8.93;;;3.35;;
68923;SDS011;55961;52.156;20.942;2023-02-22T06:31:54;13.70;;;4.13;;
68923;SDS011;55961;52.156;20.942;2023-02-22T06:34:20;10.67;;;3.60;;
68923;SDS011;55961;52.156;20.942;2023-02-22T06:36:46;12.18;;;4.05;;
68923;SDS011;55961;52.156;20.942;2023-02-22T06:39:16;12.20;;;4.40;;
68923;SDS011;55961;52.156;20.942;2023-02-22T06:41:43;11.75;;;3.70;;
68923;SDS011;55961;52.156;20.942;2023-02-22T06:44:11;10.55;;;4.13;;
68923;SDS011;55961;52.156;20.942;2023-02-22T06:46:38;11.57;;;4.03;;
68923;SDS011;55961;52.156;20.942;2023-02-22T06:49:04;11.15;;;3.58;;
68923;SDS011;55961;52.156;20.942;2023-02-22T06:51:33;12.32;;;4.25;;
68923;SDS011;55961;52.156;20.942;2023-02-22T06:54:01;9.82;;;4.03;;
68923;SDS011;55961;52.156;20.942;2023-02-22T06:56:28;11.07;;;3.78;;
68923;SDS011;55961;52.156;20.942;2023-02-22T06:58:54;9.30;;;3.67;;
68923;SDS011;55961;52.156;20.942;2023-02-22T07:01:20;6.70;;;2.28;;
68923;SDS011;55961;52.156;20.942;2023-02-22T07:03:47;7.28;;;2.60;;
68923;SDS011;55961;52.156;20.942;2023-02-22T07:06:14;7.38;;;2.78;;
68923;SDS011;55961;52.156;20.942;2023-02-22T07:08:40;5.43;;;1.67;;
68923;SDS011;55961;52.156;20.942;2023-02-22T07:11:06;7.82;;;2.20;;
68923;SDS011;55961;52.156;20.942;2023-02-22T07:13:32;5.85;;;1.67;;
68923;SDS011;55961;52.156;20.942;2023-02-22T07:15:57;6.17;;;1.37;;
68923;SDS011;55961;52.156;20.942;2023-02-22T07:18:24;6.47;;;1.63;;
68923;SDS011;55961;52.156;20.942;2023-02-22T07:20:50;8.02;;;1.70;;
68923;SDS011;55961;52.156;20.942;2023-02-22T07:23:16;4.20;;;1.30;;
68923;SDS011;55961;52.156;20.942;2023-02-22T07:25:43;5.30;;;1.67;;
68923;SDS011;55961;52.156;20.942;2023-02-22T07:28:09;7.68;;;2.00;;
68923;SDS011;55961;52.156;20.942;2023-02-22T07:30:38;5.55;;;1.55;;
68923;SDS011;55961;52.156;20.942;2023-02-22T07:33:08;4.72;;;1.55;;
68923;SDS011;55961;52.156;20.942;2023-02-22T07:35:36;6.13;;;1.30;;
68923;SDS011;55961;52.156;20.942;2023-02-22T07:38:13;7.10;;;1.60;;
68923;SDS011;55961;52.156;20.942;2023-02-22T07:40:40;4.30;;;1.13;;
68923;SDS011;55961;52.156;20.942;2023-02-22T07:45:42;5.63;;;1.50;;
68923;SDS011;55961;52.156;20.942;2023-02-22T07:48:09;4.30;;;1.50;;
68923;SDS011;55961;52.156;20.942;2023-02-22T07:50:38;5.13;;;1.70;;
68923;SDS011;55961;52.156;20.942;2023-02-22T07:53:06;6.05;;;1.52;;
68923;SDS011;55961;52.156;20.942;2023-02-22T07:55:36;4.40;;;1.33;;
68923;SDS011;55961;52.156;20.942;2023-02-22T07:58:03;4.93;;;1.13;;
68923;SDS011;55961;52.156;20.942;2023-02-22T08:00:32;5.13;;;1.27;;
68923;SDS011;55961;52.156;20.942;2023-02-22T08:03:01;5.47;;;1.58;;
68923;SDS011;55961;52.156;20.942;2023-02-22T08:05:29;5.00;;;1.50;;
68923;SDS011;55961;52.156;20.942;2023-02-22T08:07:56;4.30;;;1.20;;
68923;SDS011;55961;52.156;20.942;2023-02-22T08:10:23;5.00;;;1.60;;
68923;SDS011;55961;52.156;20.942;2023-02-22T08:12:50;5.00;;;1.20;;
68923;SDS011;55961;52.156;20.942;2023-02-22T08:15:18;5.95;;;1.40;;
68923;SDS011;55961;52.156;20.942;2023-02-22T08:17:50;3.63;;;1.15;;
68923;SDS011;55961;52.156;20.942;2023-02-22T08:20:16;5.30;;;1.38;;
68923;SDS011;55961;52.156;20.942;2023-02-22T08:22:42;4.20;;;1.40;;
68923;SDS011;55961;52.156;20.942;2023-02-22T08:25:08;4.32;;;1.30;;
68923;SDS011;55961;52.156;20.942;2023-02-22T08:27:34;4.03;;;1.30;;
68923;SDS011;55961;52.156;20.942;2023-02-22T08:30:00;5.05;;;1.20;;
68923;SDS011;55961;52.156;20.942;2023-02-22T08:32:26;5.00;;;1.60;;
68923;SDS011;55961;52.156;20.942;2023-02-22T08:34:52;4.72;;;1.40;;
68923;SDS011;55961;52.156;20.942;2023-02-22T08:37:18;3.53;;;1.13;;
68923;SDS011;55961;52.156;20.942;2023-02-22T08:39:44;4.23;;;1.40;;
68923;SDS011;55961;52.156;20.942;2023-02-22T08:42:10;3.97;;;1.15;;
68923;SDS011;55961;52.156;20.942;2023-02-22T08:44:36;4.20;;;1.35;;
68923;SDS011;55961;52.156;20.942;2023-02-22T08:47:03;4.68;;;1.70;;
68923;SDS011;55961;52.156;20.942;2023-02-22T08:49:29;3.60;;;0.70;;
68923;SDS011;55961;52.156;20.942;2023-02-22T08:51:55;5.20;;;1.00;;
68923;SDS011;55961;52.156;20.942;2023-02-22T08:54:21;4.40;;;0.98;;
68923;SDS011;55961;52.156;20.942;2023-02-22T08:56:48;5.15;;;1.17;;
68923;SDS011;55961;52.156;20.942;2023-02-22T08:59:15;6.00;;;1.33;;
68923;SDS011;55961;52.156;20.942;2023-02-22T09:01:41;8.40;;;2.03;;
68923;SDS011;55961;52.156;20.942;2023-02-22T09:04:07;4.93;;;1.90;;
68923;SDS011;55961;52.156;20.942;2023-02-22T09:06:34;5.15;;;2.00;;
68923;SDS011;55961;52.156;20.942;2023-02-22T09:09:00;8.13;;;3.95;;
68923;SDS011;55961;52.156;20.942;2023-02-22T09:11:26;4.93;;;1.53;;
68923;SDS011;55961;52.156;20.942;2023-02-22T09:13:52;6.20;;;1.75;;
68923;SDS011;55961;52.156;20.942;2023-02-22T09:16:18;3.88;;;1.02;;
68923;SDS011;55961;52.156;20.942;2023-02-22T09:18:44;5.17;;;1.00;;
68923;SDS011;55961;52.156;20.942;2023-02-22T09:21:10;4.38;;;1.48;;
68923;SDS011;55961;52.156;20.942;2023-02-22T09:23:36;6.90;;;2.00;;
68923;SDS011;55961;52.156;20.942;2023-02-22T09:26:02;6.30;;;2.10;;
68923;SDS011;55961;52.156;20.942;2023-02-22T09:28:28;5.33;;;1.63;;
68923;SDS011;55961;52.156;20.942;2023-02-22T09:30:54;5.68;;;1.65;;
68923;SDS011;55961;52.156;20.942;2023-02-22T09:33:20;7.63;;;2.35;;
68923;SDS011;55961;52.156;20.942;2023-02-22T09:35:47;9.02;;;2.15;;
68923;SDS011;55961;52.156;20.942;2023-02-22T09:38:21;9.57;;;2.40;;
68923;SDS011;55961;52.156;20.942;2023-02-22T09:40:53;6.05;;;1.73;;
68923;SDS011;55961;52.156;20.942;2023-02-22T09:46:12;8.05;;;1.75;;
68923;SDS011;55961;52.156;20.942;2023-02-22T09:49:28;9.13;;;2.20;;
68923;SDS011;55961;52.156;20.942;2023-02-22T09:52:00;9.90;;;2.00;;
68923;SDS011;55961;52.156;20.942;2023-02-22T09:54:41;7.40;;;1.83;;
68923;SDS011;55961;52.156;20.942;2023-02-22T09:57:36;14.57;;;4.00;;
68923;SDS011;55961;52.156;20.942;2023-02-22T10:00:06;5.35;;;1.92;;
68923;SDS011;55961;52.156;20.942;2023-02-22T10:02:50;9.85;;;3.67;;
68923;SDS011;55961;52.156;20.942;2023-02-22T10:05:30;5.83;;;2.20;;
68923;SDS011;55961;52.156;20.942;2023-02-22T10:08:03;6.45;;;2.35;;
68923;SDS011;55961;52.156;20.942;2023-02-22T10:10:51;7.53;;;2.47;;
68923;SDS011;55961;52.156;20.942;2023-02-22T10:13:48;5.88;;;1.98;;
68923;SDS011;55961;52.156;20.942;2023-02-22T10:16:33;7.00;;;2.60;;
68923;SDS011;55961;52.156;20.942;2023-02-22T10:24:47;8.38;;;2.50;;
68923;SDS011;55961;52.156;20.942;2023-02-22T10:27:28;18.33;;;7.22;;
68923;SDS011;55961;52.156;20.942;2023-02-22T10:35:53;17.10;;;5.68;;
68923;SDS011;55961;52.156;20.942;2023-02-22T10:38:24;21.23;;;8.20;;
68923;SDS011;55961;52.156;20.942;2023-02-22T10:40:54;23.13;;;8.35;;
68923;SDS011;55961;52.156;20.942;2023-02-22T10:43:27;12.45;;;5.22;;
68923;SDS011;55961;52.156;20.942;2023-02-22T10:45:56;8.10;;;3.50;;
68923;SDS011;55961;52.156;20.942;2023-02-22T10:48:25;7.75;;;2.88;;
68923;SDS011;55961;52.156;20.942;2023-02-22T10:50:58;8.18;;;2.30;;
68923;SDS011;55961;52.156;20.942;2023-02-22T10:53:27;6.82;;;2.40;;
68923;SDS011;55961;52.156;20.942;2023-02-22T10:56:08;7.88;;;2.97;;
68923;SDS011;55961;52.156;20.942;2023-02-22T10:58:46;9.73;;;3.27;;
68923;SDS011;55961;52.156;20.942;2023-02-22T11:06:25;9.82;;;2.70;;
68923;SDS011;55961;52.156;20.942;2023-02-22T11:09:01;8.20;;;2.65;;
68923;SDS011;55961;52.156;20.942;2023-02-22T11:11:30;7.67;;;2.70;;
68923;SDS011;55961;52.156;20.942;2023-02-22T11:13:56;7.32;;;2.78;;
68923;SDS011;55961;52.156;20.942;2023-02-22T11:16:26;7.13;;;2.95;;
68923;SDS011;55961;52.156;20.942;2023-02-22T11:19:01;6.80;;;2.47;;
68923;SDS011;55961;52.156;20.942;2023-02-22T11:21:28;7.68;;;2.80;;
68923;SDS011;55961;52.156;20.942;2023-02-22T11:24:04;6.73;;;2.07;;
68923;SDS011;55961;52.156;20.942;2023-02-22T11:26:43;9.75;;;3.00;;
68923;SDS011;55961;52.156;20.942;2023-02-22T11:32:01;8.82;;;2.60;;
68923;SDS011;55961;52.156;20.942;2023-02-22T11:34:37;8.32;;;2.25;;
68923;SDS011;55961;52.156;20.942;2023-02-22T11:43:05;7.90;;;2.60;;
68923;SDS011;55961;52.156;20.942;2023-02-22T11:45:54;8.13;;;2.85;;
68923;SDS011;55961;52.156;20.942;2023-02-22T11:48:36;10.02;;;3.00;;
68923;SDS011;55961;52.156;20.942;2023-02-22T11:56:43;7.57;;;3.00;;
68923;SDS011;55961;52.156;20.942;2023-02-22T11:59:16;8.85;;;3.05;;
68923;SDS011;55961;52.156;20.942;2023-02-22T12:05:23;9.97;;;2.90;;
68923;SDS011;55961;52.156;20.942;2023-02-22T12:10:43;9.20;;;2.75;;
68923;SDS011;55961;52.156;20.942;2023-02-22T12:21:54;6.63;;;2.35;;
68923;SDS011;55961;52.156;20.942;2023-02-22T12:24:26;7.68;;;2.55;;
68923;SDS011;55961;52.156;20.942;2023-02-22T12:27:29;5.80;;;2.33;;
68923;SDS011;55961;52.156;20.942;2023-02-22T12:30:05;6.88;;;2.72;;
68923;SDS011;55961;52.156;20.942;2023-02-22T12:32:42;8.83;;;2.43;;
68923;SDS011;55961;52.156;20.942;2023-02-22T12:35:25;8.20;;;3.05;;
68923;SDS011;55961;52.156;20.942;2023-02-22T12:38:00;8.85;;;3.20;;
68923;SDS011;55961;52.156;20.942;2023-02-22T12:40:46;10.57;;;3.55;;
68923;SDS011;55961;52.156;20.942;2023-02-22T12:45:59;9.73;;;3.00;;
68923;SDS011;55961;52.156;20.942;2023-02-22T12:48:32;6.63;;;2.28;;
68923;SDS011;55961;52.156;20.942;2023-02-22T12:53:40;8.00;;;2.22;;
68923;SDS011;55961;52.156;20.942;2023-02-22T13:01:50;12.18;;;3.33;;
68923;SDS011;55961;52.156;20.942;2023-02-22T13:04:21;8.23;;;2.35;;
68923;SDS011;55961;52.156;20.942;2023-02-22T13:16:11;6.65;;;2.40;;
68923;SDS011;55961;52.156;20.942;2023-02-22T13:22:01;9.30;;;3.13;;
68923;SDS011;55961;52.156;20.942;2023-02-22T13:36:00;7.65;;;2.40;;
68923;SDS011;55961;52.156;20.942;2023-02-22T13:52:53;6.03;;;2.40;;
68923;SDS011;55961;52.156;20.942;2023-02-22T13:55:23;7.50;;;2.20;;
68923;SDS011;55961;52.156;20.942;2023-02-22T13:58:08;8.00;;;2.72;;
68923;SDS011;55961;52.156;20.942;2023-02-22T14:05:47;5.07;;;1.85;;
68923;SDS011;55961;52.156;20.942;2023-02-22T14:10:51;7.72;;;2.22;;
68923;SDS011;55961;52.156;20.942;2023-02-22T14:13:18;9.10;;;2.72;;
68923;SDS011;55961;52.156;20.942;2023-02-22T14:21:05;7.77;;;2.53;;
68923;SDS011;55961;52.156;20.942;2023-02-22T14:23:34;8.13;;;2.47;;
68923;SDS011;55961;52.156;20.942;2023-02-22T14:26:09;10.52;;;2.95;;
68923;SDS011;55961;52.156;20.942;2023-02-22T14:31:26;6.32;;;1.80;;
68923;SDS011;55961;52.156;20.942;2023-02-22T14:39:05;8.93;;;2.47;;
68923;SDS011;55961;52.156;20.942;2023-02-22T14:41:41;12.70;;;4.03;;
68923;SDS011;55961;52.156;20.942;2023-02-22T14:44:15;16.08;;;5.07;;
68923;SDS011;55961;52.156;20.942;2023-02-22T14:46:55;16.53;;;5.07;;
68923;SDS011;55961;52.156;20.942;2023-02-22T14:49:29;24.20;;;7.47;;
68923;SDS011;55961;52.156;20.942;2023-02-22T14:52:02;26.60;;;7.15;;
68923;SDS011;55961;52.156;20.942;2023-02-22T14:54:38;8.55;;;2.78;;
68923;SDS011;55961;52.156;20.942;2023-02-22T14:57:33;22.50;;;7.05;;
68923;SDS011;55961;52.156;20.942;2023-02-22T15:02:45;37.83;;;10.60;;
68923;SDS011;55961;52.156;20.942;2023-02-22T15:05:13;17.65;;;5.30;;
68923;SDS011;55961;52.156;20.942;2023-02-22T15:07:51;19.05;;;6.13;;
68923;SDS011;55961;52.156;20.942;2023-02-22T15:12:54;36.20;;;9.97;;
68923;SDS011;55961;52.156;20.942;2023-02-22T15:15:41;13.40;;;4.35;;
68923;SDS011;55961;52.156;20.942;2023-02-22T15:18:52;11.40;;;3.47;;
68923;SDS011;55961;52.156;20.942;2023-02-22T15:21:10;22.02;;;6.75;;
68923;SDS011;55961;52.156;20.942;2023-02-22T15:24:03;16.58;;;4.85;;
68923;SDS011;55961;52.156;20.942;2023-02-22T15:28:59;14.27;;;5.30;;
68923;SDS011;55961;52.156;20.942;2023-02-22T15:31:30;23.40;;;6.80;;
68923;SDS011;55961;52.156;20.942;2023-02-22T15:34:08;24.63;;;7.13;;
68923;SDS011;55961;52.156;20.942;2023-02-22T15:36:41;24.58;;;9.38;;
68923;SDS011;55961;52.156;20.942;2023-02-22T15:39:18;18.33;;;5.80;;
68923;SDS011;55961;52.156;20.942;2023-02-22T15:42:00;15.25;;;4.97;;
68923;SDS011;55961;52.156;20.942;2023-02-22T15:44:35;27.95;;;11.15;;
68923;SDS011;55961;52.156;20.942;2023-02-22T15:47:03;10.90;;;3.72;;
68923;SDS011;55961;52.156;20.942;2023-02-22T15:49:29;7.07;;;2.35;;
68923;SDS011;55961;52.156;20.942;2023-02-22T15:52:02;7.87;;;2.73;;
68923;SDS011;55961;52.156;20.942;2023-02-22T15:54:37;9.88;;;3.33;;
68923;SDS011;55961;52.156;20.942;2023-02-22T15:57:06;6.82;;;2.80;;
68923;SDS011;55961;52.156;20.942;2023-02-22T15:59:38;7.20;;;2.65;;
68923;SDS011;55961;52.156;20.942;2023-02-22T16:05:10;8.57;;;2.73;;
68923;SDS011;55961;52.156;20.942;2023-02-22T16:07:44;7.90;;;2.85;;
68923;SDS011;55961;52.156;20.942;2023-02-22T16:10:28;15.95;;;5.57;;
68923;SDS011;55961;52.156;20.942;2023-02-22T16:18:46;13.57;;;4.07;;
68923;SDS011;55961;52.156;20.942;2023-02-22T16:21:15;18.63;;;6.10;;
68923;SDS011;55961;52.156;20.942;2023-02-22T16:26:30;7.50;;;2.60;;
68923;SDS011;55961;52.156;20.942;2023-02-22T16:29:01;9.23;;;2.67;;
68923;SDS011;55961;52.156;20.942;2023-02-22T16:31:34;12.03;;;4.20;;
68923;SDS011;55961;52.156;20.942;2023-02-22T16:34:03;16.27;;;5.63;;
68923;SDS011;55961;52.156;20.942;2023-02-22T16:39:13;16.65;;;5.25;;
68923;SDS011;55961;52.156;20.942;2023-02-22T16:41:49;7.68;;;3.13;;
68923;SDS011;55961;52.156;20.942;2023-02-22T16:44:15;7.63;;;2.93;;
68923;SDS011;55961;52.156;20.942;2023-02-22T16:46:42;7.28;;;2.42;;
68923;SDS011;55961;52.156;20.942;2023-02-22T16:49:11;8.13;;;2.78;;
68923;SDS011;55961;52.156;20.942;2023-02-22T16:54:13;15.43;;;5.00;;
68923;SDS011;55961;52.156;20.942;2023-02-22T16:56:44;17.53;;;6.40;;
68923;SDS011;55961;52.156;20.942;2023-02-22T16:59:11;11.15;;;3.45;;
68923;SDS011;55961;52.156;20.942;2023-02-22T17:01:39;15.00;;;5.15;;
68923;SDS011;55961;52.156;20.942;2023-02-22T17:04:25;19.75;;;5.22;;
68923;SDS011;55961;52.156;20.942;2023-02-22T17:06:53;10.03;;;3.30;;
68923;SDS011;55961;52.156;20.942;2023-02-22T17:09:18;8.35;;;2.58;;
68923;SDS011;55961;52.156;20.942;2023-02-22T17:11:45;10.75;;;3.58;;
68923;SDS011;55961;52.156;20.942;2023-02-22T17:14:20;7.63;;;3.35;;
68923;SDS011;55961;52.156;20.942;2023-02-22T17:16:48;10.10;;;3.63;;
68923;SDS011;55961;52.156;20.942;2023-02-22T17:19:15;8.38;;;3.40;;
68923;SDS011;55961;52.156;20.942;2023-02-22T17:21:47;12.27;;;4.95;;
68923;SDS011;55961;52.156;20.942;2023-02-22T17:24:13;7.45;;;3.47;;
68923;SDS011;55961;52.156;20.942;2023-02-22T17:26:44;10.90;;;4.50;;
68923;SDS011;55961;52.156;20.942;2023-02-22T17:29:10;9.30;;;3.30;;
68923;SDS011;55961;52.156;20.942;2023-02-22T17:31:38;7.88;;;2.40;;
68923;SDS011;55961;52.156;20.942;2023-02-22T17:34:04;7.18;;;2.47;;
68923;SDS011;55961;52.156;20.942;2023-02-22T17:36:31;9.50;;;3.13;;
68923;SDS011;55961;52.156;20.942;2023-02-22T17:38:57;8.20;;;2.80;;
68923;SDS011;55961;52.156;20.942;2023-02-22T17:41:24;8.32;;;2.67;;
68923;SDS011;55961;52.156;20.942;2023-02-22T17:43:50;10.32;;;5.03;;
68923;SDS011;55961;52.156;20.942;2023-02-22T17:46:18;14.70;;;5.70;;
68923;SDS011;55961;52.156;20.942;2023-02-22T17:48:45;19.75;;;7.20;;
68923;SDS011;55961;52.156;20.942;2023-02-22T17:51:14;20.80;;;7.30;;